sensor_id;sensor_type;location;lat;lon;timestamp;temperature;humidity
19168;DHT22;9716;53.114;18.040;2023-12-07T00:01:28;0.20;99.90
19168;DHT22;9716;53.114;18.040;2023-12-07T00:03:56;0.20;99.90
19168;DHT22;9716;53.114;18.040;2023-12-07T00:06:25;0.20;99.90
19168;DHT22;9716;53.114;18.040;2023-12-07T00:08:53;0.20;99.90
19168;DHT22;9716;53.114;18.040;2023-12-07T00:11:22;0.20;99.90
19168;DHT22;9716;53.114;18.040;2023-12-07T00:13:50;0.20;99.90
19168;DHT22;9716;53.114;18.040;2023-12-07T00:16:20;0.20;99.90
19168;DHT22;9716;53.114;18.040;2023-12-07T00:18:49;0.20;99.90
19168;DHT22;9716;53.114;18.040;2023-12-07T00:21:17;0.20;99.90
19168;DHT22;9716;53.114;18.040;2023-12-07T00:23:46;0.20;99.90
19168;DHT22;9716;53.114;18.040;2023-12-07T00:26:15;0.20;99.90
19168;DHT22;9716;53.114;18.040;2023-12-07T00:28:43;0.20;99.90
19168;DHT22;9716;53.114;18.040;2023-12-07T00:31:12;0.20;99.90
19168;DHT22;9716;53.114;18.040;2023-12-07T00:33:42;0.20;99.90
19168;DHT22;9716;53.114;18.040;2023-12-07T00:36:13;0.20;99.90
19168;DHT22;9716;53.114;18.040;2023-12-07T00:38:41;0.20;99.90
19168;DHT22;9716;53.114;18.040;2023-12-07T00:41:10;0.30;99.90
19168;DHT22;9716;53.114;18.040;2023-12-07T00:43:38;0.20;99.90
19168;DHT22;9716;53.114;18.040;2023-12-07T00:46:07;0.20;99.90
19168;DHT22;9716;53.114;18.040;2023-12-07T00:48:35;0.30;99.90
19168;DHT22;9716;53.114;18.040;2023-12-07T00:51:06;0.20;99.90
19168;DHT22;9716;53.114;18.040;2023-12-07T00:53:34;0.30;99.90
19168;DHT22;9716;53.114;18.040;2023-12-07T00:56:03;0.30;99.90
19168;DHT22;9716;53.114;18.040;2023-12-07T00:58:32;0.30;99.90
19168;DHT22;9716;53.114;18.040;2023-12-07T01:01:00;0.30;99.90
19168;DHT22;9716;53.114;18.040;2023-12-07T01:03:30;0.30;99.90
19168;DHT22;9716;53.114;18.040;2023-12-07T01:05:59;0.30;99.90
19168;DHT22;9716;53.114;18.040;2023-12-07T01:08:28;0.30;99.90
19168;DHT22;9716;53.114;18.040;2023-12-07T01:10:57;0.30;99.90
19168;DHT22;9716;53.114;18.040;2023-12-07T01:13:25;0.30;99.90
19168;DHT22;9716;53.114;18.040;2023-12-07T01:15:54;0.20;99.90
19168;DHT22;9716;53.114;18.040;2023-12-07T01:18:22;0.20;99.90
19168;DHT22;9716;53.114;18.040;2023-12-07T01:20:51;0.20;99.90
19168;DHT22;9716;53.114;18.040;2023-12-07T01:23:19;0.20;99.90
19168;DHT22;9716;53.114;18.040;2023-12-07T01:25:49;0.20;99.90
19168;DHT22;9716;53.114;18.040;2023-12-07T01:28:18;0.30;99.90
19168;DHT22;9716;53.114;18.040;2023-12-07T01:30:46;0.30;99.90
19168;DHT22;9716;53.114;18.040;2023-12-07T01:33:15;0.20;99.90
19168;DHT22;9716;53.114;18.040;2023-12-07T01:35:44;0.10;99.90
19168;DHT22;9716;53.114;18.040;2023-12-07T01:38:12;0.20;99.90
19168;DHT22;9716;53.114;18.040;2023-12-07T01:40:41;0.20;99.90
19168;DHT22;9716;53.114;18.040;2023-12-07T01:43:13;0.20;99.90
19168;DHT22;9716;53.114;18.040;2023-12-07T01:45:42;0.20;99.90
19168;DHT22;9716;53.114;18.040;2023-12-07T01:48:11;0.20;99.90
19168;DHT22;9716;53.114;18.040;2023-12-07T01:50:39;0.30;99.90
19168;DHT22;9716;53.114;18.040;2023-12-07T01:53:08;0.30;99.90
19168;DHT22;9716;53.114;18.040;2023-12-07T01:55:37;0.30;99.90
19168;DHT22;9716;53.114;18.040;2023-12-07T01:58:06;0.30;99.90
19168;DHT22;9716;53.114;18.040;2023-12-07T02:00:36;0.30;99.90
19168;DHT22;9716;53.114;18.040;2023-12-07T02:03:05;0.20;99.90
19168;DHT22;9716;53.114;18.040;2023-12-07T02:05:35;0.20;99.90
19168;DHT22;9716;53.114;18.040;2023-12-07T02:08:05;0.20;99.90
19168;DHT22;9716;53.114;18.040;2023-12-07T02:10:33;0.30;99.90
19168;DHT22;9716;53.114;18.040;2023-12-07T02:13:02;0.30;99.90
19168;DHT22;9716;53.114;18.040;2023-12-07T02:15:31;0.20;99.90
19168;DHT22;9716;53.114;18.040;2023-12-07T02:18:06;0.30;99.90
19168;DHT22;9716;53.114;18.040;2023-12-07T02:20:43;0.30;99.90
19168;DHT22;9716;53.114;18.040;2023-12-07T02:23:14;0.20;99.90
19168;DHT22;9716;53.114;18.040;2023-12-07T02:26:03;0.20;99.90
19168;DHT22;9716;53.114;18.040;2023-12-07T02:28:32;0.20;99.90
19168;DHT22;9716;53.114;18.040;2023-12-07T02:31:01;0.20;99.90
19168;DHT22;9716;53.114;18.040;2023-12-07T02:33:30;0.30;99.90
19168;DHT22;9716;53.114;18.040;2023-12-07T02:35:59;0.30;99.90
19168;DHT22;9716;53.114;18.040;2023-12-07T02:38:28;0.20;99.90
19168;DHT22;9716;53.114;18.040;2023-12-07T02:40:57;0.20;99.90
19168;DHT22;9716;53.114;18.040;2023-12-07T02:43:27;0.20;99.90
19168;DHT22;9716;53.114;18.040;2023-12-07T02:45:58;0.20;99.90
19168;DHT22;9716;53.114;18.040;2023-12-07T02:48:26;0.20;99.90
19168;DHT22;9716;53.114;18.040;2023-12-07T02:50:57;0.20;99.90
19168;DHT22;9716;53.114;18.040;2023-12-07T02:53:25;0.20;99.90
19168;DHT22;9716;53.114;18.040;2023-12-07T02:55:53;0.20;99.90
19168;DHT22;9716;53.114;18.040;2023-12-07T02:58:22;0.20;99.90
19168;DHT22;9716;53.114;18.040;2023-12-07T03:00:50;0.20;99.90
19168;DHT22;9716;53.114;18.040;2023-12-07T03:03:20;0.20;99.90
19168;DHT22;9716;53.114;18.040;2023-12-07T03:05:49;0.20;99.90
19168;DHT22;9716;53.114;18.040;2023-12-07T03:08:18;0.20;99.90
19168;DHT22;9716;53.114;18.040;2023-12-07T03:10:46;0.20;99.90
19168;DHT22;9716;53.114;18.040;2023-12-07T03:13:14;0.20;99.90
19168;DHT22;9716;53.114;18.040;2023-12-07T03:15:43;0.20;99.90
19168;DHT22;9716;53.114;18.040;2023-12-07T03:18:12;0.20;99.90
19168;DHT22;9716;53.114;18.040;2023-12-07T03:20:42;0.20;99.90
19168;DHT22;9716;53.114;18.040;2023-12-07T03:23:10;0.20;99.90
19168;DHT22;9716;53.114;18.040;2023-12-07T03:25:39;0.10;99.90
19168;DHT22;9716;53.114;18.040;2023-12-07T03:28:07;0.10;99.90
19168;DHT22;9716;53.114;18.040;2023-12-07T03:30:36;0.10;99.90
19168;DHT22;9716;53.114;18.040;2023-12-07T03:33:04;0.10;99.90
19168;DHT22;9716;53.114;18.040;2023-12-07T03:35:33;0.10;99.90
19168;DHT22;9716;53.114;18.040;2023-12-07T03:38:03;0.10;99.90
19168;DHT22;9716;53.114;18.040;2023-12-07T03:40:31;0.00;99.90
19168;DHT22;9716;53.114;18.040;2023-12-07T03:43:00;0.00;99.90
19168;DHT22;9716;53.114;18.040;2023-12-07T03:45:31;0.00;99.90
19168;DHT22;9716;53.114;18.040;2023-12-07T03:47:59;-0.10;99.90
19168;DHT22;9716;53.114;18.040;2023-12-07T03:50:28;-0.10;99.90
19168;DHT22;9716;53.114;18.040;2023-12-07T03:52:56;0.00;99.90
19168;DHT22;9716;53.114;18.040;2023-12-07T03:55:26;-0.10;99.90
19168;DHT22;9716;53.114;18.040;2023-12-07T03:57:55;-0.10;99.90
19168;DHT22;9716;53.114;18.040;2023-12-07T04:00:24;-0.20;99.90
19168;DHT22;9716;53.114;18.040;2023-12-07T04:02:52;-0.20;99.90
19168;DHT22;9716;53.114;18.040;2023-12-07T04:05:21;-0.20;99.90
19168;DHT22;9716;53.114;18.040;2023-12-07T04:07:49;-0.20;99.90
19168;DHT22;9716;53.114;18.040;2023-12-07T04:10:18;-0.20;99.90
19168;DHT22;9716;53.114;18.040;2023-12-07T04:12:47;-0.20;99.90
19168;DHT22;9716;53.114;18.040;2023-12-07T04:15:16;-0.20;99.90
19168;DHT22;9716;53.114;18.040;2023-12-07T04:17:45;-0.20;99.90
19168;DHT22;9716;53.114;18.040;2023-12-07T04:20:14;-0.20;99.90
19168;DHT22;9716;53.114;18.040;2023-12-07T04:22:44;-0.20;99.90
19168;DHT22;9716;53.114;18.040;2023-12-07T04:25:13;-0.20;99.90
19168;DHT22;9716;53.114;18.040;2023-12-07T04:27:41;-0.20;99.90
19168;DHT22;9716;53.114;18.040;2023-12-07T04:30:12;-0.20;99.90
19168;DHT22;9716;53.114;18.040;2023-12-07T04:32:40;-0.20;99.90
19168;DHT22;9716;53.114;18.040;2023-12-07T04:35:09;-0.20;99.90
19168;DHT22;9716;53.114;18.040;2023-12-07T04:37:37;-0.20;99.90
19168;DHT22;9716;53.114;18.040;2023-12-07T04:40:07;-0.20;99.90
19168;DHT22;9716;53.114;18.040;2023-12-07T04:42:37;-0.10;99.90
19168;DHT22;9716;53.114;18.040;2023-12-07T04:45:07;-0.20;99.90
19168;DHT22;9716;53.114;18.040;2023-12-07T04:47:36;-0.10;99.90
19168;DHT22;9716;53.114;18.040;2023-12-07T04:50:05;-0.20;99.90
19168;DHT22;9716;53.114;18.040;2023-12-07T04:52:34;-0.10;99.90
19168;DHT22;9716;53.114;18.040;2023-12-07T04:55:04;-0.10;99.90
19168;DHT22;9716;53.114;18.040;2023-12-07T04:57:33;-0.10;99.90
19168;DHT22;9716;53.114;18.040;2023-12-07T05:00:02;-0.10;99.90
19168;DHT22;9716;53.114;18.040;2023-12-07T05:02:33;-0.10;99.90
19168;DHT22;9716;53.114;18.040;2023-12-07T05:05:03;-0.10;99.90
19168;DHT22;9716;53.114;18.040;2023-12-07T05:07:32;-0.10;99.90
19168;DHT22;9716;53.114;18.040;2023-12-07T05:10:01;-0.10;99.90
19168;DHT22;9716;53.114;18.040;2023-12-07T05:12:30;-0.10;99.90
19168;DHT22;9716;53.114;18.040;2023-12-07T05:14:58;-0.10;99.90
19168;DHT22;9716;53.114;18.040;2023-12-07T05:17:27;-0.10;99.90
19168;DHT22;9716;53.114;18.040;2023-12-07T05:19:55;-0.10;99.90
19168;DHT22;9716;53.114;18.040;2023-12-07T05:22:25;-0.10;99.90
19168;DHT22;9716;53.114;18.040;2023-12-07T05:24:54;-0.10;99.90
19168;DHT22;9716;53.114;18.040;2023-12-07T05:27:23;-0.10;99.90
19168;DHT22;9716;53.114;18.040;2023-12-07T05:29:51;0.00;99.90
19168;DHT22;9716;53.114;18.040;2023-12-07T05:32:20;-0.10;99.90
19168;DHT22;9716;53.114;18.040;2023-12-07T05:34:49;0.00;99.90
19168;DHT22;9716;53.114;18.040;2023-12-07T05:37:17;0.00;99.90
19168;DHT22;9716;53.114;18.040;2023-12-07T05:39:47;-0.10;99.90
19168;DHT22;9716;53.114;18.040;2023-12-07T05:42:16;0.00;99.90
19168;DHT22;9716;53.114;18.040;2023-12-07T05:44:46;0.00;99.90
19168;DHT22;9716;53.114;18.040;2023-12-07T05:47:14;0.00;99.90
19168;DHT22;9716;53.114;18.040;2023-12-07T05:49:42;0.10;99.90
19168;DHT22;9716;53.114;18.040;2023-12-07T05:52:11;0.10;99.90
19168;DHT22;9716;53.114;18.040;2023-12-07T05:54:40;0.10;99.90
19168;DHT22;9716;53.114;18.040;2023-12-07T05:57:10;0.10;99.90
19168;DHT22;9716;53.114;18.040;2023-12-07T05:59:39;0.10;99.90
19168;DHT22;9716;53.114;18.040;2023-12-07T06:02:08;0.10;99.90
19168;DHT22;9716;53.114;18.040;2023-12-07T06:04:37;0.10;99.90
19168;DHT22;9716;53.114;18.040;2023-12-07T06:07:06;0.10;99.90
19168;DHT22;9716;53.114;18.040;2023-12-07T06:09:34;0.10;99.90
19168;DHT22;9716;53.114;18.040;2023-12-07T06:12:03;0.20;99.90
19168;DHT22;9716;53.114;18.040;2023-12-07T06:14:33;0.20;99.90
19168;DHT22;9716;53.114;18.040;2023-12-07T06:17:02;0.20;99.90
19168;DHT22;9716;53.114;18.040;2023-12-07T06:19:30;0.20;99.90
19168;DHT22;9716;53.114;18.040;2023-12-07T06:21:59;0.20;99.90
19168;DHT22;9716;53.114;18.040;2023-12-07T06:24:27;0.20;99.90
19168;DHT22;9716;53.114;18.040;2023-12-07T06:26:56;0.30;99.90
19168;DHT22;9716;53.114;18.040;2023-12-07T06:29:24;0.30;99.90
19168;DHT22;9716;53.114;18.040;2023-12-07T06:31:57;0.30;99.90
19168;DHT22;9716;53.114;18.040;2023-12-07T06:34:27;0.30;99.90
19168;DHT22;9716;53.114;18.040;2023-12-07T06:36:56;0.30;99.90
19168;DHT22;9716;53.114;18.040;2023-12-07T06:39:25;0.30;99.90
19168;DHT22;9716;53.114;18.040;2023-12-07T06:41:53;0.30;99.90
19168;DHT22;9716;53.114;18.040;2023-12-07T06:44:22;0.40;99.90
19168;DHT22;9716;53.114;18.040;2023-12-07T06:46:51;0.30;99.90
19168;DHT22;9716;53.114;18.040;2023-12-07T06:49:21;0.40;99.90
19168;DHT22;9716;53.114;18.040;2023-12-07T06:51:57;0.40;99.90
19168;DHT22;9716;53.114;18.040;2023-12-07T06:54:26;0.40;99.90
19168;DHT22;9716;53.114;18.040;2023-12-07T06:56:55;0.40;99.90
19168;DHT22;9716;53.114;18.040;2023-12-07T06:59:23;0.40;99.90
19168;DHT22;9716;53.114;18.040;2023-12-07T07:01:52;0.40;99.90
19168;DHT22;9716;53.114;18.040;2023-12-07T07:04:22;0.40;99.90
19168;DHT22;9716;53.114;18.040;2023-12-07T07:06:50;0.40;99.90
19168;DHT22;9716;53.114;18.040;2023-12-07T07:09:19;0.50;99.90
19168;DHT22;9716;53.114;18.040;2023-12-07T07:11:48;0.50;99.90
19168;DHT22;9716;53.114;18.040;2023-12-07T07:14:16;0.50;99.90
19168;DHT22;9716;53.114;18.040;2023-12-07T07:16:45;0.50;99.90
19168;DHT22;9716;53.114;18.040;2023-12-07T07:19:14;0.50;99.90
19168;DHT22;9716;53.114;18.040;2023-12-07T07:21:45;0.50;99.90
19168;DHT22;9716;53.114;18.040;2023-12-07T07:24:14;0.60;99.90
19168;DHT22;9716;53.114;18.040;2023-12-07T07:26:42;0.60;99.90
19168;DHT22;9716;53.114;18.040;2023-12-07T07:29:11;0.60;99.90
19168;DHT22;9716;53.114;18.040;2023-12-07T07:31:39;0.60;99.90
19168;DHT22;9716;53.114;18.040;2023-12-07T07:34:08;0.60;99.90
19168;DHT22;9716;53.114;18.040;2023-12-07T07:36:37;0.70;99.90
19168;DHT22;9716;53.114;18.040;2023-12-07T07:39:07;0.70;99.90
19168;DHT22;9716;53.114;18.040;2023-12-07T07:41:35;0.80;99.90
19168;DHT22;9716;53.114;18.040;2023-12-07T07:44:04;0.80;99.90
19168;DHT22;9716;53.114;18.040;2023-12-07T07:46:32;0.80;99.90
19168;DHT22;9716;53.114;18.040;2023-12-07T07:49:02;0.80;99.90
19168;DHT22;9716;53.114;18.040;2023-12-07T07:51:31;0.90;99.90
19168;DHT22;9716;53.114;18.040;2023-12-07T07:54:00;0.90;99.90
19168;DHT22;9716;53.114;18.040;2023-12-07T07:56:30;0.90;99.90
19168;DHT22;9716;53.114;18.040;2023-12-07T07:58:58;0.90;99.90
19168;DHT22;9716;53.114;18.040;2023-12-07T08:01:28;0.90;99.90
19168;DHT22;9716;53.114;18.040;2023-12-07T08:03:56;1.00;99.90
19168;DHT22;9716;53.114;18.040;2023-12-07T08:06:25;1.00;99.90
19168;DHT22;9716;53.114;18.040;2023-12-07T08:08:53;1.00;99.90
19168;DHT22;9716;53.114;18.040;2023-12-07T08:11:21;1.00;99.90
19168;DHT22;9716;53.114;18.040;2023-12-07T08:13:52;1.10;99.90
19168;DHT22;9716;53.114;18.040;2023-12-07T08:16:20;1.10;99.90
19168;DHT22;9716;53.114;18.040;2023-12-07T08:18:49;1.10;99.90
19168;DHT22;9716;53.114;18.040;2023-12-07T08:21:21;1.10;99.90
19168;DHT22;9716;53.114;18.040;2023-12-07T08:23:55;1.20;99.90
19168;DHT22;9716;53.114;18.040;2023-12-07T08:26:23;1.20;99.90
19168;DHT22;9716;53.114;18.040;2023-12-07T08:28:53;1.20;99.90
19168;DHT22;9716;53.114;18.040;2023-12-07T08:31:21;1.20;99.90
19168;DHT22;9716;53.114;18.040;2023-12-07T08:33:52;1.20;99.90
19168;DHT22;9716;53.114;18.040;2023-12-07T08:36:20;1.30;99.90
19168;DHT22;9716;53.114;18.040;2023-12-07T08:38:50;1.30;99.90
19168;DHT22;9716;53.114;18.040;2023-12-07T08:41:19;1.40;99.90
19168;DHT22;9716;53.114;18.040;2023-12-07T08:43:47;1.40;99.90
19168;DHT22;9716;53.114;18.040;2023-12-07T08:46:18;1.40;99.90
19168;DHT22;9716;53.114;18.040;2023-12-07T08:48:46;1.40;99.90
19168;DHT22;9716;53.114;18.040;2023-12-07T08:51:15;1.40;99.90
19168;DHT22;9716;53.114;18.040;2023-12-07T08:53:44;1.40;99.90
19168;DHT22;9716;53.114;18.040;2023-12-07T08:56:17;1.40;99.90
19168;DHT22;9716;53.114;18.040;2023-12-07T08:58:46;1.40;99.90
19168;DHT22;9716;53.114;18.040;2023-12-07T09:01:14;1.40;99.90
19168;DHT22;9716;53.114;18.040;2023-12-07T09:04:00;1.50;99.90
19168;DHT22;9716;53.114;18.040;2023-12-07T09:06:28;1.40;99.90
19168;DHT22;9716;53.114;18.040;2023-12-07T09:08:57;1.40;99.90
19168;DHT22;9716;53.114;18.040;2023-12-07T09:11:27;1.40;99.90
19168;DHT22;9716;53.114;18.040;2023-12-07T09:13:57;1.40;99.90
19168;DHT22;9716;53.114;18.040;2023-12-07T09:16:25;1.40;99.90
19168;DHT22;9716;53.114;18.040;2023-12-07T09:18:54;1.50;99.90
19168;DHT22;9716;53.114;18.040;2023-12-07T09:21:24;1.50;99.90
19168;DHT22;9716;53.114;18.040;2023-12-07T09:23:53;1.50;99.90
19168;DHT22;9716;53.114;18.040;2023-12-07T09:26:21;1.50;99.90
19168;DHT22;9716;53.114;18.040;2023-12-07T09:28:50;1.60;99.90
19168;DHT22;9716;53.114;18.040;2023-12-07T09:31:18;1.60;99.90
19168;DHT22;9716;53.114;18.040;2023-12-07T09:33:47;1.60;99.90
19168;DHT22;9716;53.114;18.040;2023-12-07T09:36:17;1.60;99.90
19168;DHT22;9716;53.114;18.040;2023-12-07T09:38:49;1.60;99.90
19168;DHT22;9716;53.114;18.040;2023-12-07T09:41:18;1.60;99.90
19168;DHT22;9716;53.114;18.040;2023-12-07T09:43:47;1.60;99.90
19168;DHT22;9716;53.114;18.040;2023-12-07T09:46:16;1.70;99.90
19168;DHT22;9716;53.114;18.040;2023-12-07T09:48:49;1.70;99.90
19168;DHT22;9716;53.114;18.040;2023-12-07T09:51:17;1.70;99.90
19168;DHT22;9716;53.114;18.040;2023-12-07T09:53:50;1.70;99.90
19168;DHT22;9716;53.114;18.040;2023-12-07T09:56:21;1.70;99.90
19168;DHT22;9716;53.114;18.040;2023-12-07T09:58:50;1.70;99.90
19168;DHT22;9716;53.114;18.040;2023-12-07T10:01:18;1.70;99.90
19168;DHT22;9716;53.114;18.040;2023-12-07T10:03:47;1.80;99.90
19168;DHT22;9716;53.114;18.040;2023-12-07T10:06:16;1.80;99.90
19168;DHT22;9716;53.114;18.040;2023-12-07T10:08:44;1.80;99.90
19168;DHT22;9716;53.114;18.040;2023-12-07T10:11:16;1.80;99.90
19168;DHT22;9716;53.114;18.040;2023-12-07T10:13:45;1.80;99.90
19168;DHT22;9716;53.114;18.040;2023-12-07T10:16:15;1.80;99.90
19168;DHT22;9716;53.114;18.040;2023-12-07T10:18:45;1.80;99.90
19168;DHT22;9716;53.114;18.040;2023-12-07T10:21:14;1.80;99.90
19168;DHT22;9716;53.114;18.040;2023-12-07T10:23:43;1.80;99.90
19168;DHT22;9716;53.114;18.040;2023-12-07T10:26:17;1.80;99.90
19168;DHT22;9716;53.114;18.040;2023-12-07T10:28:49;1.80;99.90
19168;DHT22;9716;53.114;18.040;2023-12-07T10:31:21;1.80;99.90
19168;DHT22;9716;53.114;18.040;2023-12-07T10:33:51;1.90;99.90
19168;DHT22;9716;53.114;18.040;2023-12-07T10:36:21;1.90;99.90
19168;DHT22;9716;53.114;18.040;2023-12-07T10:38:49;2.00;99.90
19168;DHT22;9716;53.114;18.040;2023-12-07T10:41:21;2.00;99.90
19168;DHT22;9716;53.114;18.040;2023-12-07T10:43:53;2.00;99.90
19168;DHT22;9716;53.114;18.040;2023-12-07T10:46:22;2.10;99.90
19168;DHT22;9716;53.114;18.040;2023-12-07T10:48:55;2.10;99.90
19168;DHT22;9716;53.114;18.040;2023-12-07T10:51:31;2.10;99.90
19168;DHT22;9716;53.114;18.040;2023-12-07T10:54:02;2.10;99.90
19168;DHT22;9716;53.114;18.040;2023-12-07T10:56:39;2.10;99.90
19168;DHT22;9716;53.114;18.040;2023-12-07T10:59:09;2.10;99.90
19168;DHT22;9716;53.114;18.040;2023-12-07T11:01:47;2.10;99.90
19168;DHT22;9716;53.114;18.040;2023-12-07T11:04:17;2.10;99.90
19168;DHT22;9716;53.114;18.040;2023-12-07T11:06:48;2.10;99.90
19168;DHT22;9716;53.114;18.040;2023-12-07T11:09:22;2.10;99.90
19168;DHT22;9716;53.114;18.040;2023-12-07T11:12:01;2.10;99.90
19168;DHT22;9716;53.114;18.040;2023-12-07T11:14:32;2.10;99.90
19168;DHT22;9716;53.114;18.040;2023-12-07T11:17:03;2.10;99.90
19168;DHT22;9716;53.114;18.040;2023-12-07T11:19:44;2.10;99.90
19168;DHT22;9716;53.114;18.040;2023-12-07T11:22:13;2.10;99.90
19168;DHT22;9716;53.114;18.040;2023-12-07T11:24:52;2.10;99.90
19168;DHT22;9716;53.114;18.040;2023-12-07T11:27:24;2.10;99.90
19168;DHT22;9716;53.114;18.040;2023-12-07T11:29:53;2.20;99.90
19168;DHT22;9716;53.114;18.040;2023-12-07T11:32:22;2.20;99.90
19168;DHT22;9716;53.114;18.040;2023-12-07T11:35:01;2.20;99.90
19168;DHT22;9716;53.114;18.040;2023-12-07T11:38:00;2.20;99.90
19168;DHT22;9716;53.114;18.040;2023-12-07T11:40:30;2.30;99.90
19168;DHT22;9716;53.114;18.040;2023-12-07T11:43:01;2.30;99.90
19168;DHT22;9716;53.114;18.040;2023-12-07T11:45:36;2.30;99.90
19168;DHT22;9716;53.114;18.040;2023-12-07T11:48:09;2.30;99.90
19168;DHT22;9716;53.114;18.040;2023-12-07T11:50:56;2.30;99.90
19168;DHT22;9716;53.114;18.040;2023-12-07T11:53:26;2.20;99.90
19168;DHT22;9716;53.114;18.040;2023-12-07T11:55:56;2.20;99.90
19168;DHT22;9716;53.114;18.040;2023-12-07T11:58:27;2.20;99.90
19168;DHT22;9716;53.114;18.040;2023-12-07T12:00:56;2.20;99.90
19168;DHT22;9716;53.114;18.040;2023-12-07T12:03:25;2.20;99.90
19168;DHT22;9716;53.114;18.040;2023-12-07T12:05:55;2.20;99.90
19168;DHT22;9716;53.114;18.040;2023-12-07T12:08:24;2.20;99.90
19168;DHT22;9716;53.114;18.040;2023-12-07T12:10:54;2.20;99.90
19168;DHT22;9716;53.114;18.040;2023-12-07T12:13:29;2.20;99.90
19168;DHT22;9716;53.114;18.040;2023-12-07T12:15:58;2.20;99.90
19168;DHT22;9716;53.114;18.040;2023-12-07T12:18:31;2.20;99.90
19168;DHT22;9716;53.114;18.040;2023-12-07T12:21:00;2.20;99.90
19168;DHT22;9716;53.114;18.040;2023-12-07T12:23:29;2.20;99.90
19168;DHT22;9716;53.114;18.040;2023-12-07T12:25:58;2.20;99.90
19168;DHT22;9716;53.114;18.040;2023-12-07T12:28:28;2.20;99.90
19168;DHT22;9716;53.114;18.040;2023-12-07T12:31:00;2.20;99.90
19168;DHT22;9716;53.114;18.040;2023-12-07T12:33:28;2.20;99.90
19168;DHT22;9716;53.114;18.040;2023-12-07T12:36:04;2.20;99.90
19168;DHT22;9716;53.114;18.040;2023-12-07T12:38:34;2.20;99.90
19168;DHT22;9716;53.114;18.040;2023-12-07T12:41:10;2.20;99.90
19168;DHT22;9716;53.114;18.040;2023-12-07T12:43:41;2.20;99.90
19168;DHT22;9716;53.114;18.040;2023-12-07T12:46:15;2.20;99.90
19168;DHT22;9716;53.114;18.040;2023-12-07T12:48:54;2.20;99.90
19168;DHT22;9716;53.114;18.040;2023-12-07T12:51:24;2.20;99.90
19168;DHT22;9716;53.114;18.040;2023-12-07T12:53:54;2.20;99.90
19168;DHT22;9716;53.114;18.040;2023-12-07T12:56:23;2.20;99.90
19168;DHT22;9716;53.114;18.040;2023-12-07T12:58:54;2.20;99.90
19168;DHT22;9716;53.114;18.040;2023-12-07T13:01:30;2.20;99.90
19168;DHT22;9716;53.114;18.040;2023-12-07T13:04:00;2.20;99.90
19168;DHT22;9716;53.114;18.040;2023-12-07T13:06:29;2.20;99.90
19168;DHT22;9716;53.114;18.040;2023-12-07T13:08:57;2.20;99.90
19168;DHT22;9716;53.114;18.040;2023-12-07T13:11:26;2.20;99.90
19168;DHT22;9716;53.114;18.040;2023-12-07T13:13:59;2.20;99.90
19168;DHT22;9716;53.114;18.040;2023-12-07T13:16:34;2.10;99.90
19168;DHT22;9716;53.114;18.040;2023-12-07T13:19:03;2.10;99.90
19168;DHT22;9716;53.114;18.040;2023-12-07T13:21:32;2.10;99.90
19168;DHT22;9716;53.114;18.040;2023-12-07T13:24:00;2.10;99.90
19168;DHT22;9716;53.114;18.040;2023-12-07T13:26:32;2.10;99.90
19168;DHT22;9716;53.114;18.040;2023-12-07T13:29:02;2.20;99.90
19168;DHT22;9716;53.114;18.040;2023-12-07T13:31:30;2.20;99.90
19168;DHT22;9716;53.114;18.040;2023-12-07T13:33:59;2.10;99.90
19168;DHT22;9716;53.114;18.040;2023-12-07T13:36:33;2.20;99.90
19168;DHT22;9716;53.114;18.040;2023-12-07T13:39:02;2.20;99.90
19168;DHT22;9716;53.114;18.040;2023-12-07T13:41:31;2.20;99.90
19168;DHT22;9716;53.114;18.040;2023-12-07T13:44:01;2.10;99.90
19168;DHT22;9716;53.114;18.040;2023-12-07T13:46:32;2.20;99.90
19168;DHT22;9716;53.114;18.040;2023-12-07T13:49:01;2.10;99.90
19168;DHT22;9716;53.114;18.040;2023-12-07T13:51:31;2.10;99.90
19168;DHT22;9716;53.114;18.040;2023-12-07T13:54:00;2.10;99.90
19168;DHT22;9716;53.114;18.040;2023-12-07T13:56:30;2.10;99.90
19168;DHT22;9716;53.114;18.040;2023-12-07T13:58:58;2.10;99.90
19168;DHT22;9716;53.114;18.040;2023-12-07T14:01:28;2.10;99.90
19168;DHT22;9716;53.114;18.040;2023-12-07T14:03:59;2.10;99.90
19168;DHT22;9716;53.114;18.040;2023-12-07T14:06:29;2.10;99.90
19168;DHT22;9716;53.114;18.040;2023-12-07T14:08:58;2.10;99.90
19168;DHT22;9716;53.114;18.040;2023-12-07T14:11:27;2.10;99.90
19168;DHT22;9716;53.114;18.040;2023-12-07T14:13:55;2.10;99.90
19168;DHT22;9716;53.114;18.040;2023-12-07T14:16:24;2.10;99.90
19168;DHT22;9716;53.114;18.040;2023-12-07T14:19:13;2.10;99.90
19168;DHT22;9716;53.114;18.040;2023-12-07T14:21:43;2.10;99.90
19168;DHT22;9716;53.114;18.040;2023-12-07T14:24:23;2.00;99.90
19168;DHT22;9716;53.114;18.040;2023-12-07T14:26:53;2.00;99.90
19168;DHT22;9716;53.114;18.040;2023-12-07T14:29:22;2.00;99.90
19168;DHT22;9716;53.114;18.040;2023-12-07T14:31:54;2.00;99.90
19168;DHT22;9716;53.114;18.040;2023-12-07T14:34:25;2.00;99.90
19168;DHT22;9716;53.114;18.040;2023-12-07T14:37:02;2.00;99.90
19168;DHT22;9716;53.114;18.040;2023-12-07T14:39:34;2.00;99.90
19168;DHT22;9716;53.114;18.040;2023-12-07T14:42:03;1.90;99.90
19168;DHT22;9716;53.114;18.040;2023-12-07T14:44:33;1.90;99.90
19168;DHT22;9716;53.114;18.040;2023-12-07T14:47:03;1.90;99.90
19168;DHT22;9716;53.114;18.040;2023-12-07T14:49:33;1.90;99.90
19168;DHT22;9716;53.114;18.040;2023-12-07T14:52:01;1.90;99.90
19168;DHT22;9716;53.114;18.040;2023-12-07T14:54:30;1.90;99.90
19168;DHT22;9716;53.114;18.040;2023-12-07T14:56:59;1.90;99.90
19168;DHT22;9716;53.114;18.040;2023-12-07T14:59:30;1.90;99.90
19168;DHT22;9716;53.114;18.040;2023-12-07T15:01:59;1.90;99.90
19168;DHT22;9716;53.114;18.040;2023-12-07T15:04:28;1.90;99.90
19168;DHT22;9716;53.114;18.040;2023-12-07T15:07:03;1.90;99.90
19168;DHT22;9716;53.114;18.040;2023-12-07T15:09:33;1.90;99.90
19168;DHT22;9716;53.114;18.040;2023-12-07T15:12:05;1.90;99.90
19168;DHT22;9716;53.114;18.040;2023-12-07T15:14:34;1.90;99.90
19168;DHT22;9716;53.114;18.040;2023-12-07T15:17:05;1.90;99.90
19168;DHT22;9716;53.114;18.040;2023-12-07T15:19:36;1.90;99.90
19168;DHT22;9716;53.114;18.040;2023-12-07T15:22:07;1.90;99.90
19168;DHT22;9716;53.114;18.040;2023-12-07T15:24:36;1.90;99.90
19168;DHT22;9716;53.114;18.040;2023-12-07T15:27:07;1.90;99.90
19168;DHT22;9716;53.114;18.040;2023-12-07T15:29:36;1.90;99.90
19168;DHT22;9716;53.114;18.040;2023-12-07T15:32:07;1.90;99.90
19168;DHT22;9716;53.114;18.040;2023-12-07T15:34:36;1.90;99.90
19168;DHT22;9716;53.114;18.040;2023-12-07T15:37:11;1.90;99.90
19168;DHT22;9716;53.114;18.040;2023-12-07T15:39:41;1.90;99.90
19168;DHT22;9716;53.114;18.040;2023-12-07T15:42:11;1.90;99.90
19168;DHT22;9716;53.114;18.040;2023-12-07T15:44:40;1.90;99.90
19168;DHT22;9716;53.114;18.040;2023-12-07T15:47:09;1.90;99.90
19168;DHT22;9716;53.114;18.040;2023-12-07T15:49:38;1.90;99.90
19168;DHT22;9716;53.114;18.040;2023-12-07T15:52:10;1.90;99.90
19168;DHT22;9716;53.114;18.040;2023-12-07T15:54:38;1.90;99.90
19168;DHT22;9716;53.114;18.040;2023-12-07T15:57:08;1.90;99.90
19168;DHT22;9716;53.114;18.040;2023-12-07T15:59:38;1.90;99.90
19168;DHT22;9716;53.114;18.040;2023-12-07T16:02:08;1.90;99.90